CheckWX is a tool to help pilots better visualize weather data.  It is not intended as a substitute for an official pre-flight weather briefing.

16:27:02 UTC

KMIA METAR
Miami International Airport
Miami, Florida, USA
Current

34 mins ago

KMIA 071553Z 32004KT 10SM FEW040 24/13 A3017 RMK AO2 SLP215 T02440133
Observed
Dec-7 @ 15:53 UTC
Wind
  • 320° at 4 KTS
Visibility
10 SM
Flight Rules
VFR
Cloud Levels
  • Few at 4,000' AGL
Temperature
24°C / 75°F
Dewpoint
13°C / 55°F
Humidity
50%
Altimeter
30.17" Hg
Pressure
1021.72 hPa
Previous

2 hours ago

KMIA 071453Z 36003KT 10SM FEW040 FEW250 23/13 A3018 RMK AO2 SLP220 T02330133 51016
Observed
Dec-7 @ 14:53 UTC
Wind
  • 360° at 3 KTS
Visibility
10 SM
Flight Rules
VFR
Cloud Levels
  • Few at 4,000' AGL
  • Few at 25,000' AGL
Temperature
23°C / 73°F
Dewpoint
13°C / 55°F
Humidity
53%
Altimeter
30.18" Hg
Pressure
1022.02 hPa
Previous

3 hours ago

KMIA 071353Z 35004KT 10SM FEW040 FEW250 21/13 A3017 RMK AO2 SLP217 T02110128
Observed
Dec-7 @ 13:53 UTC
Wind
  • 350° at 4 KTS
Visibility
10 SM
Flight Rules
VFR
Cloud Levels
  • Few at 4,000' AGL
  • Few at 25,000' AGL
Temperature
21°C / 70°F
Dewpoint
13°C / 55°F
Humidity
60%
Altimeter
30.17" Hg
Pressure
1021.72 hPa